Time;durP1;ratioP1;P1;durP2;ratioP2;P2;SDS_P1;SDS_P2;PMS_P1;PMS_P2;Temp;Humidity;BMP_temperature;BMP_pressure;BME280_temperature;BME280_humidity;BME280_pressure;Samples;Min_cycle;Max_cycle;Signal;HPM_P1;HPM_P2
2021/12/23 00:01:48;;;;;;;37.10;19.48;;;;;;;-0.72;100.00;101196.16;4990641;28;20040;-72
2021/12/23 00:04:14;;;;;;;31.73;17.92;;;;;;;-0.62;100.00;101196.81;4998727;28;20482;-71
2021/12/23 00:06:41;;;;;;;39.60;19.58;;;;;;;-0.60;100.00;101195.66;5009527;28;20048;-72
2021/12/23 00:09:09;;;;;;;35.35;18.92;;;;;;;-0.63;100.00;101211.78;4994950;28;20489;-72
2021/12/23 00:11:34;;;;;;;37.20;18.45;;;;;;;-0.64;100.00;101227.78;4993176;28;20264;-72
2021/12/23 00:14:05;;;;;;;31.42;18.33;;;;;;;-0.64;100.00;101233.03;5008711;28;20037;-72
2021/12/23 00:19:22;;;;;;;64.65;28.52;;;;;;;-0.66;100.00;101198.09;4994480;28;20048;-72
2021/12/23 00:24:35;;;;;;;54.17;25.92;;;;;;;-0.68;100.00;101171.09;4993741;28;20627;-72
2021/12/23 00:27:01;;;;;;;38.90;20.73;;;;;;;-0.60;100.00;101161.38;4993423;28;20065;-72
2021/12/23 00:29:26;;;;;;;38.83;20.33;;;;;;;-0.51;100.00;101148.22;5008509;28;20104;-72
2021/12/23 00:31:55;;;;;;;34.88;19.98;;;;;;;-0.47;100.00;101131.91;4993282;28;20157;-70
2021/12/23 00:34:20;;;;;;;34.30;19.77;;;;;;;-0.34;100.00;101147.22;4992764;28;20037;-73
2021/12/23 00:36:46;;;;;;;29.92;18.42;;;;;;;-0.33;100.00;101154.97;4993333;28;20040;-72
2021/12/23 00:39:13;;;;;;;34.03;19.52;;;;;;;-0.39;100.00;101129.28;4992898;28;20043;-73
2021/12/23 00:41:41;;;;;;;35.78;19.45;;;;;;;-0.33;100.00;101149.72;4998746;28;20036;-73
2021/12/23 00:44:07;;;;;;;34.83;19.58;;;;;;;-0.34;100.00;101142.75;4993069;28;20501;-71
2021/12/23 00:46:35;;;;;;;50.15;23.20;;;;;;;-0.34;100.00;101121.66;4991821;28;20065;-72
2021/12/23 00:49:01;;;;;;;33.13;20.23;;;;;;;-0.40;100.00;101105.72;4992736;28;20340;-73
2021/12/23 00:51:26;;;;;;;33.92;18.58;;;;;;;-0.39;100.00;101084.47;4992944;28;20492;-73
2021/12/23 00:54:02;;;;;;;31.52;18.67;;;;;;;-0.31;100.00;101100.25;4997021;28;20045;-73
2021/12/23 00:56:39;;;;;;;30.13;17.38;;;;;;;-0.32;100.00;101106.53;4993412;28;20088;-72
2021/12/23 00:59:08;;;;;;;31.85;17.38;;;;;;;-0.39;100.00;101104.72;4982484;28;20030;-72
2021/12/23 01:01:36;;;;;;;28.20;17.30;;;;;;;-0.38;100.00;101104.56;4992869;28;20134;-73
2021/12/23 01:04:02;;;;;;;36.97;19.50;;;;;;;-0.41;100.00;101094.34;4998361;28;20037;-71
2021/12/23 01:06:30;;;;;;;39.28;20.67;;;;;;;-0.43;100.00;101084.94;4992332;28;20044;-72
2021/12/23 01:08:55;;;;;;;41.53;21.05;;;;;;;-0.41;100.00;101089.09;4991762;28;20029;-72
2021/12/23 01:11:21;;;;;;;37.25;20.17;;;;;;;-0.42;100.00;101097.13;4992209;28;20029;-71
2021/12/23 01:14:01;;;;;;;34.83;18.77;;;;;;;-0.54;100.00;101072.94;4997082;28;20481;-72
2021/12/23 01:16:37;;;;;;;33.45;18.80;;;;;;;-0.62;100.00;101070.31;4992632;28;20037;-73
2021/12/23 01:19:10;;;;;;;31.92;18.73;;;;;;;-0.55;100.00;101060.75;5004961;28;20381;-72
2021/12/23 01:21:35;;;;;;;34.08;19.75;;;;;;;-0.58;100.00;101051.34;5006706;28;20519;-72
2021/12/23 01:24:09;;;;;;;32.58;19.02;;;;;;;-0.55;100.00;101055.50;4992009;28;20034;-72
2021/12/23 01:26:34;;;;;;;44.20;21.92;;;;;;;-0.62;100.00;101049.25;4993268;28;20052;-72
2021/12/23 01:29:00;;;;;;;33.42;19.02;;;;;;;-0.62;100.00;101057.97;4998947;28;20038;-72
2021/12/23 01:31:31;;;;;;;36.60;19.17;;;;;;;-0.64;100.00;101057.31;4992067;28;20049;-73
2021/12/23 01:34:00;;;;;;;38.67;19.23;;;;;;;-0.64;100.00;101064.41;4992670;28;20299;-72
2021/12/23 01:36:26;;;;;;;40.35;20.33;;;;;;;-0.73;100.00;101023.25;4996833;28;20046;-72
2021/12/23 01:38:56;;;;;;;35.85;19.65;;;;;;;-0.72;100.00;101043.34;4990438;28;20037;-72
2021/12/23 01:41:25;;;;;;;32.22;18.98;;;;;;;-0.74;100.00;101051.38;4992796;28;20029;-72
2021/12/23 01:43:55;;;;;;;34.60;18.98;;;;;;;-0.76;100.00;101063.91;5006913;28;20068;-72
2021/12/23 01:46:24;;;;;;;43.65;22.67;;;;;;;-0.78;100.00;101044.81;5006746;28;20025;-72
2021/12/23 01:48:54;;;;;;;44.30;23.17;;;;;;;-0.75;100.00;101039.19;4991867;28;20119;-72
2021/12/23 01:51:20;;;;;;;36.55;21.20;;;;;;;-0.73;100.00;101028.50;4990938;28;20288;-72
2021/12/23 01:53:46;;;;;;;35.22;21.17;;;;;;;-0.73;100.00;101031.16;4991857;28;20057;-72
2021/12/23 01:56:17;;;;;;;41.80;22.33;;;;;;;-0.77;100.00;101016.66;4992564;28;20052;-72
2021/12/23 01:58:45;;;;;;;37.72;20.83;;;;;;;-0.79;100.00;101014.19;5006755;28;20033;-72
2021/12/23 02:01:11;;;;;;;38.20;20.75;;;;;;;-0.78;100.00;101020.28;4992579;28;20469;-72
2021/12/23 02:03:41;;;;;;;36.63;20.23;;;;;;;-0.76;100.00;101023.56;5005715;28;20373;-72
2021/12/23 02:06:07;;;;;;;37.60;20.25;;;;;;;-0.76;100.00;101023.56;4992035;28;20038;-71
2021/12/23 02:08:36;;;;;;;43.08;24.35;;;;;;;-0.87;100.00;101009.75;4991221;28;20039;-72
2021/12/23 02:11:06;;;;;;;53.40;27.35;;;;;;;-0.78;100.00;101042.16;4991788;28;20064;-73
2021/12/23 02:13:32;;;;;;;50.03;25.52;;;;;;;-0.82;100.00;101032.13;5006592;28;20417;-73
2021/12/23 02:15:58;;;;;;;49.08;25.75;;;;;;;-0.83;100.00;101038.38;4990344;28;20189;-72
2021/12/23 02:18:26;;;;;;;48.47;27.70;;;;;;;-0.81;100.00;101031.97;4991629;28;20086;-72
2021/12/23 02:20:54;;;;;;;56.63;28.98;;;;;;;-0.97;100.00;101009.09;4997587;28;20216;-72
2021/12/23 02:23:21;;;;;;;50.55;27.67;;;;;;;-0.88;100.00;101015.19;4990642;28;20053;-72
2021/12/23 02:25:47;;;;;;;41.28;22.42;;;;;;;-0.93;100.00;100994.59;4995866;28;20041;-72
2021/12/23 02:28:22;;;;;;;43.40;22.55;;;;;;;-0.89;100.00;100984.56;4990902;28;20037;-72
2021/12/23 02:30:52;;;;;;;37.80;21.05;;;;;;;-0.90;100.00;100994.28;4991604;28;20052;-72
2021/12/23 02:33:22;;;;;;;48.92;23.35;;;;;;;-0.99;100.00;100979.47;4989046;28;20040;-72
2021/12/23 02:35:48;;;;;;;50.40;23.50;;;;;;;-0.97;100.00;100971.41;5006367;28;20723;-71
2021/12/23 02:38:18;;;;;;;45.20;22.60;;;;;;;-0.95;100.00;100957.09;4980970;28;20088;-70
2021/12/23 02:40:44;;;;;;;47.95;23.63;;;;;;;-1.00;100.00;100950.66;4992364;28;20270;-72
2021/12/23 02:43:29;;;;;;;47.65;24.38;;;;;;;-1.00;100.00;100950.66;5005262;28;20033;-72
2021/12/23 02:45:57;;;;;;;42.50;22.40;;;;;;;-1.02;100.00;100942.94;4992373;28;20120;-71
2021/12/23 02:48:30;;;;;;;47.85;23.17;;;;;;;-1.02;100.00;100955.28;4993783;28;20033;-72
2021/12/23 02:50:56;;;;;;;38.58;21.08;;;;;;;-1.04;100.00;100959.91;4996141;28;20508;-73
2021/12/23 02:53:25;;;;;;;51.80;27.10;;;;;;;-1.02;100.00;100964.00;4995926;28;20034;-72
2021/12/23 02:55:55;;;;;;;59.50;31.33;;;;;;;-1.09;100.00;100959.56;4990995;28;20073;-72
2021/12/23 02:58:23;;;;;;;45.30;26.08;;;;;;;-1.07;100.00;100966.28;4988551;28;20065;-72
2021/12/23 03:00:54;;;;;;;40.40;23.20;;;;;;;-1.12;100.00;100968.63;4991674;28;20565;-72
2021/12/23 03:03:22;;;;;;;43.60;23.02;;;;;;;-1.13;100.00;100978.34;4994252;28;20524;-72
2021/12/23 03:05:49;;;;;;;34.25;22.42;;;;;;;-1.17;100.00;100978.81;5005309;28;20034;-72
2021/12/23 03:08:27;;;;;;;39.78;23.23;;;;;;;-1.21;100.00;100974.88;4980415;28;20040;-73
2021/12/23 03:10:52;;;;;;;34.65;23.02;;;;;;;-1.26;100.00;100972.72;4990780;28;20025;-72
2021/12/23 03:13:18;;;;;;;39.75;23.42;;;;;;;-1.30;100.00;100975.88;4977413;28;20037;-72
2021/12/23 03:15:43;;;;;;;42.60;23.88;;;;;;;-1.32;100.00;100978.66;4991103;28;20045;-72
2021/12/23 03:18:09;;;;;;;41.25;24.13;;;;;;;-1.34;100.00;100974.53;4990276;28;20256;-72
2021/12/23 03:20:37;;;;;;;41.30;25.02;;;;;;;-1.39;100.00;100961.84;4995009;28;20060;-72
2021/12/23 03:23:04;;;;;;;39.90;24.55;;;;;;;-1.36;100.00;100960.72;4990163;28;20060;-72
2021/12/23 03:25:32;;;;;;;56.10;28.65;;;;;;;-1.35;100.00;100949.22;4991468;28;20149;-72
2021/12/23 03:27:58;;;;;;;48.75;28.48;;;;;;;-1.32;100.00;100951.50;4990566;28;20053;-71
2021/12/23 03:30:24;;;;;;;54.97;28.40;;;;;;;-1.33;100.00;100929.63;4991184;28;20034;-73
2021/12/23 03:32:52;;;;;;;55.85;30.27;;;;;;;-1.29;100.00;100940.66;4991166;28;20040;-72
2021/12/23 03:35:17;;;;;;;69.50;36.10;;;;;;;-1.23;100.00;100929.44;4989994;28;20061;-71
2021/12/23 03:37:46;;;;;;;72.32;37.90;;;;;;;-1.24;100.00;100918.09;4990808;28;20124;-72
2021/12/23 03:40:12;;;;;;;75.57;38.85;;;;;;;-1.18;100.00;100924.53;4998264;28;20064;-72
2021/12/23 03:42:38;;;;;;;84.70;42.03;;;;;;;-1.14;100.00;100920.59;4993835;28;20749;-73
2021/12/23 03:45:08;;;;;;;84.72;41.05;;;;;;;-1.15;100.00;100911.00;4994124;28;20092;-72
2021/12/23 03:47:34;;;;;;;78.32;40.63;;;;;;;-1.21;100.00;100896.72;4994123;28;20034;-72
2021/12/23 03:50:00;;;;;;;81.97;42.25;;;;;;;-1.14;100.00;100902.16;5008059;28;20452;-72
2021/12/23 03:52:27;;;;;;;88.43;44.03;;;;;;;-1.16;100.00;100904.13;4998136;28;20504;-72
2021/12/23 03:54:53;;;;;;;89.32;44.38;;;;;;;-1.17;100.00;100894.56;4997328;28;20037;-72
2021/12/23 03:57:20;;;;;;;98.20;48.47;;;;;;;-1.18;100.00;100911.34;4983848;28;20025;-72
2021/12/23 03:59:46;;;;;;;88.63;47.85;;;;;;;-1.14;100.00;100915.31;4994142;28;20464;-71
2021/12/23 04:02:11;;;;;;;86.38;45.88;;;;;;;-1.13;100.00;100924.84;4993005;28;20079;-72
2021/12/23 04:04:39;;;;;;;94.80;45.75;;;;;;;-1.14;100.00;100913.50;4993775;28;20033;-72
2021/12/23 04:07:05;;;;;;;87.35;45.80;;;;;;;-1.26;100.00;100914.00;5003145;28;20034;-72
2021/12/23 04:09:30;;;;;;;86.13;43.50;;;;;;;-1.24;100.00;100927.81;4999867;28;20575;-72
2021/12/23 04:11:55;;;;;;;82.55;43.85;;;;;;;-1.23;100.00;100918.94;4993795;28;20041;-72
2021/12/23 04:14:23;;;;;;;83.53;43.00;;;;;;;-1.22;100.00;100924.03;4994465;28;21874;-72
2021/12/23 04:16:49;;;;;;;86.40;41.75;;;;;;;-1.27;100.00;100880.78;4994450;28;20476;-72
2021/12/23 04:19:14;;;;;;;101.93;48.80;;;;;;;-1.22;100.00;100867.94;5008280;28;20032;-72
2021/12/23 04:21:41;;;;;;;115.18;56.40;;;;;;;-1.16;100.00;100880.41;4994052;28;20069;-72
2021/12/23 04:24:08;;;;;;;110.47;52.67;;;;;;;-1.11;100.00;100878.13;4999726;28;20107;-72
2021/12/23 04:26:37;;;;;;;108.88;54.10;;;;;;;-1.11;100.00;100886.00;4993745;28;20068;-72
2021/12/23 04:29:06;;;;;;;110.63;52.78;;;;;;;-1.14;100.00;100886.38;4993799;28;20033;-73
2021/12/23 04:31:32;;;;;;;97.00;46.92;;;;;;;-1.10;100.00;100892.91;4983805;28;20155;-72
2021/12/23 04:34:00;;;;;;;97.88;50.75;;;;;;;-1.10;100.00;100885.03;4990731;28;20041;-72
2021/12/23 04:36:27;;;;;;;102.53;50.05;;;;;;;-1.10;100.00;100871.84;4994067;28;20034;-72
2021/12/23 04:38:53;;;;;;;102.32;51.22;;;;;;;-1.06;100.00;100888.97;4993551;28;20029;-71
2021/12/23 04:41:19;;;;;;;112.72;54.45;;;;;;;-1.05;100.00;100869.56;4994203;28;20136;-72
2021/12/23 04:43:47;;;;;;;110.68;55.08;;;;;;;-1.00;100.00;100861.94;4999065;28;20052;-71
2021/12/23 04:46:17;;;;;;;109.45;53.45;;;;;;;-0.96;100.00;100871.16;4993061;28;20243;-72
2021/12/23 04:48:47;;;;;;;116.40;56.08;;;;;;;-0.96;100.00;100852.72;4993299;28;22147;-71
2021/12/23 04:51:17;;;;;;;112.50;54.50;;;;;;;-0.94;100.00;100840.22;4991713;28;20036;-71
2021/12/23 04:53:44;;;;;;;119.57;56.63;;;;;;;-0.94;100.00;100823.59;5008436;28;20049;-71
2021/12/23 04:56:13;;;;;;;134.60;62.47;;;;;;;-0.89;100.00;100814.19;5002498;28;20045;-72
2021/12/23 04:58:41;;;;;;;149.60;70.75;;;;;;;-1.00;100.00;100797.94;4996403;28;20767;-71
2021/12/23 05:01:10;;;;;;;155.98;72.22;;;;;;;-0.87;100.00;100828.00;4993149;28;20160;-72
2021/12/23 05:03:36;;;;;;;150.88;70.20;;;;;;;-0.83;100.00;100819.75;4992430;28;20087;-71
2021/12/23 05:06:03;;;;;;;157.75;73.45;;;;;;;-0.84;100.00;100795.22;4993069;28;20026;-70
2021/12/23 05:08:31;;;;;;;159.02;74.60;;;;;;;-0.81;100.00;100804.63;4992647;28;20283;-73
2021/12/23 05:10:57;;;;;;;159.63;73.22;;;;;;;-0.95;100.00;100785.91;4982817;28;20029;-72
2021/12/23 05:13:25;;;;;;;145.27;67.13;;;;;;;-0.84;100.00;100818.94;4992865;28;20068;-72
2021/12/23 05:15:53;;;;;;;137.38;63.78;;;;;;;-0.84;100.00;100829.47;4993632;28;20161;-72
2021/12/23 05:18:21;;;;;;;141.77;63.80;;;;;;;-0.85;100.00;100815.47;4993267;28;20137;-72
2021/12/23 05:20:51;;;;;;;145.50;61.13;;;;;;;-0.89;100.00;100816.81;4998645;28;20095;-72
2021/12/23 05:23:17;;;;;;;129.48;60.38;;;;;;;-0.92;100.00;100801.34;4992308;28;20098;-72
2021/12/23 05:25:44;;;;;;;131.48;60.50;;;;;;;-0.86;100.00;100790.13;4997205;28;20560;-72
2021/12/23 05:28:10;;;;;;;142.35;63.72;;;;;;;-0.89;100.00;100776.50;4993424;28;20052;-71
2021/12/23 05:30:36;;;;;;;154.30;70.13;;;;;;;-0.83;100.00;100767.06;4992486;28;20392;-73
2021/12/23 05:33:11;;;;;;;169.30;75.47;;;;;;;-0.80;100.00;100774.66;4992695;28;21916;-72
2021/12/23 05:35:41;;;;;;;165.60;78.07;;;;;;;-0.86;100.00;100773.50;4993151;28;20037;-72
2021/12/23 05:38:11;;;;;;;162.05;77.57;;;;;;;-0.87;100.00;100772.69;4992869;28;20040;-71
2021/12/23 05:40:37;;;;;;;160.30;76.10;;;;;;;-0.86;100.00;100779.59;4992262;28;20064;-72
2021/12/23 05:43:03;;;;;;;134.30;64.68;;;;;;;-0.88;100.00;100771.06;4990471;28;20078;-71
2021/12/23 05:45:28;;;;;;;128.45;58.75;;;;;;;-0.91;100.00;100776.66;4991253;28;20034;-72
2021/12/23 05:47:54;;;;;;;129.20;56.70;;;;;;;-0.91;100.00;100781.09;4997014;28;20393;-72
2021/12/23 05:50:21;;;;;;;132.18;61.03;;;;;;;-0.93;100.00;100772.56;4991544;28;20691;-72
2021/12/23 05:52:49;;;;;;;142.73;62.45;;;;;;;-0.91;100.00;100771.38;4991370;28;20025;-71
2021/12/23 05:55:15;;;;;;;159.52;70.93;;;;;;;-0.92;100.00;100771.56;5000609;28;20116;-70
2021/12/23 05:57:40;;;;;;;172.82;74.40;;;;;;;-0.96;100.00;100757.94;4991853;28;20324;-70
2021/12/23 06:00:17;;;;;;;153.00;66.75;;;;;;;-0.94;100.00;100778.81;4991718;28;20038;-72
2021/12/23 06:02:45;;;;;;;137.63;62.70;;;;;;;-0.99;100.00;100774.06;4996512;28;20284;-72
2021/12/23 06:05:13;;;;;;;137.95;60.50;;;;;;;-0.93;100.00;100773.38;4999161;28;20049;-71
2021/12/23 06:07:41;;;;;;;143.38;64.78;;;;;;;-0.95;100.00;100772.72;4992434;28;20037;-72
2021/12/23 06:10:10;;;;;;;150.00;63.65;;;;;;;-0.97;100.00;100764.19;4997243;28;20049;-70
2021/12/23 06:12:35;;;;;;;141.77;62.67;;;;;;;-0.93;100.00;100757.56;4980941;28;20038;-70
2021/12/23 06:15:04;;;;;;;149.15;60.80;;;;;;;-0.95;100.00;100759.56;4989625;28;20041;-69
2021/12/23 06:17:29;;;;;;;151.38;62.25;;;;;;;-0.95;100.00;100756.94;4992428;28;20532;-69
2021/12/23 06:19:55;;;;;;;157.43;64.35;;;;;;;-0.94;100.00;100750.66;4990695;28;21926;-71
2021/12/23 06:22:22;;;;;;;152.55;64.22;;;;;;;-0.96;100.00;100747.41;4992171;28;20235;-69
2021/12/23 06:24:49;;;;;;;151.95;67.28;;;;;;;-0.97;100.00;100750.22;4990867;28;20057;-69
2021/12/23 06:27:16;;;;;;;180.10;67.95;;;;;;;-0.99;100.00;100742.44;4993952;28;20061;-69
2021/12/23 06:29:42;;;;;;;164.38;72.07;;;;;;;-1.00;100.00;100734.72;4995930;28;20469;-70
2021/12/23 06:32:07;;;;;;;162.15;73.32;;;;;;;-1.01;100.00;100738.34;4995811;28;20040;-70
2021/12/23 06:34:36;;;;;;;178.68;81.82;;;;;;;-0.99;100.00;100733.72;4991175;28;20041;-72
2021/12/23 06:37:06;;;;;;;168.70;78.93;;;;;;;-1.02;100.00;100721.75;4996875;28;20037;-71
2021/12/23 06:39:33;;;;;;;156.48;68.20;;;;;;;-0.98;100.00;100717.78;4991792;28;20169;-71
2021/12/23 06:42:00;;;;;;;188.75;83.30;;;;;;;-0.97;100.00;100719.44;4989609;28;20034;-71
2021/12/23 06:44:26;;;;;;;197.73;90.03;;;;;;;-0.94;100.00;100711.16;4990418;28;20165;-71
2021/12/23 06:46:52;;;;;;;167.63;73.93;;;;;;;-0.90;100.00;100704.56;4991671;28;20493;-72
2021/12/23 06:49:23;;;;;;;162.95;68.20;;;;;;;-0.91;100.00;100697.63;4989859;28;20569;-74
2021/12/23 06:51:48;;;;;;;149.88;65.45;;;;;;;-0.88;100.00;100686.78;4991376;28;20047;-72
2021/12/23 06:54:15;;;;;;;152.25;65.75;;;;;;;-0.89;100.00;100682.50;4996445;28;20567;-72
2021/12/23 06:56:43;;;;;;;137.02;54.35;;;;;;;-0.97;100.00;100682.56;5006208;28;20200;-71
2021/12/23 06:59:14;;;;;;;137.02;53.75;;;;;;;-1.02;100.00;100690.16;4996065;28;20311;-71
2021/12/23 07:01:46;;;;;;;136.93;52.90;;;;;;;-1.07;100.00;100684.56;4991251;28;20571;-70
2021/12/23 07:06:47;;;;;;;155.13;60.05;;;;;;;-1.04;100.00;100684.25;4990098;28;20044;-70
2021/12/23 07:09:13;;;;;;;143.52;57.75;;;;;;;-1.03;100.00;100670.06;4989733;28;20030;-70
2021/12/23 07:11:38;;;;;;;136.05;55.60;;;;;;;-0.99;100.00;100684.53;5005889;28;20622;-71
2021/12/23 07:14:06;;;;;;;144.20;55.47;;;;;;;-1.08;100.00;100677.66;4994120;28;20519;-71
2021/12/23 07:16:37;;;;;;;141.45;55.60;;;;;;;-1.04;100.00;100673.72;4989407;28;20381;-71
2021/12/23 07:19:03;;;;;;;142.45;58.33;;;;;;;-1.05;100.00;100679.16;4992839;28;20125;-71
2021/12/23 07:21:31;;;;;;;154.70;65.07;;;;;;;-1.04;100.00;100686.88;4982233;28;20132;-70
2021/12/23 07:24:00;;;;;;;200.82;84.40;;;;;;;-1.00;100.00;100693.41;4989659;28;20084;-71
2021/12/23 07:26:30;;;;;;;209.07;93.82;;;;;;;-0.92;100.00;100706.53;4990488;28;20045;-71
2021/12/23 07:28:56;;;;;;;206.38;85.28;;;;;;;-0.95;100.00;100703.44;4990737;28;20029;-70
2021/12/23 07:31:24;;;;;;;181.50;68.10;;;;;;;-0.94;100.00;100708.53;4993419;28;20568;-70
2021/12/23 07:33:49;;;;;;;184.32;73.68;;;;;;;-0.95;100.00;100700.81;4993532;28;20582;-70
2021/12/23 07:36:17;;;;;;;196.88;81.10;;;;;;;-0.93;100.00;100698.81;4992372;28;20029;-70
2021/12/23 07:38:42;;;;;;;218.57;86.50;;;;;;;-0.94;100.00;100687.47;4990546;28;20029;-69
2021/12/23 07:41:10;;;;;;;203.48;88.07;;;;;;;-0.92;100.00;100688.09;5004675;28;20177;-70
2021/12/23 07:43:58;;;;;;;194.82;87.30;;;;;;;-0.90;100.00;100693.19;4994127;28;20038;-72
2021/12/23 07:46:28;;;;;;;203.52;88.40;;;;;;;-0.85;100.00;100696.13;4990673;28;20678;-73
2021/12/23 07:48:54;;;;;;;209.40;88.65;;;;;;;-0.86;100.00;100694.50;4994882;28;20038;-74
2021/12/23 07:51:20;;;;;;;198.85;81.60;;;;;;;-0.94;100.00;100674.31;4995925;28;21931;-73
2021/12/23 07:53:48;;;;;;;193.60;79.22;;;;;;;-0.94;100.00;100666.41;4991766;28;20037;-74
2021/12/23 07:56:16;;;;;;;204.90;85.15;;;;;;;-0.90;100.00;100674.75;4995753;28;20083;-74
2021/12/23 07:58:44;;;;;;;195.55;83.47;;;;;;;-0.96;100.00;100659.69;4992105;28;20370;-74
2021/12/23 08:01:09;;;;;;;187.93;88.78;;;;;;;-0.83;100.00;100667.81;4990948;28;20470;-73
2021/12/23 08:03:35;;;;;;;190.00;80.28;;;;;;;-0.86;100.00;100653.19;4976773;28;20032;-72
2021/12/23 08:06:01;;;;;;;198.52;85.70;;;;;;;-0.80;100.00;100678.00;4992227;28;20540;-73
2021/12/23 08:08:26;;;;;;;222.27;82.50;;;;;;;-0.81;100.00;100680.81;4992274;28;20026;-75
2021/12/23 08:10:52;;;;;;;210.85;82.15;;;;;;;-0.83;100.00;100661.72;4991263;28;20048;-75
2021/12/23 08:13:19;;;;;;;205.82;79.07;;;;;;;-0.78;100.00;100667.28;4998362;28;20715;-74
2021/12/23 08:15:47;;;;;;;212.32;87.32;;;;;;;-0.83;100.00;100666.97;5005748;28;20104;-74
2021/12/23 08:18:13;;;;;;;216.90;83.10;;;;;;;-0.79;100.00;100648.03;4992646;28;20034;-74
2021/12/23 08:20:41;;;;;;;208.23;88.13;;;;;;;-0.75;100.00;100644.03;4989693;28;20032;-74
2021/12/23 08:23:06;;;;;;;200.02;84.32;;;;;;;-0.73;100.00;100635.97;4988657;28;20034;-75
2021/12/23 08:25:32;;;;;;;205.35;87.53;;;;;;;-0.72;100.00;100633.16;4992057;28;20141;-75
2021/12/23 08:27:58;;;;;;;200.70;90.80;;;;;;;-0.74;100.00;100623.78;4991674;28;20284;-74
2021/12/23 08:30:25;;;;;;;211.23;91.75;;;;;;;-0.74;100.00;100629.06;4991804;28;20036;-73
2021/12/23 08:32:51;;;;;;;207.48;90.18;;;;;;;-0.70;100.00;100635.63;4991484;28;20123;-74
2021/12/23 08:35:17;;;;;;;224.35;92.43;;;;;;;-0.70;100.00;100641.69;4991305;28;20091;-70
2021/12/23 08:37:46;;;;;;;222.88;87.10;;;;;;;-0.72;100.00;100616.53;5006746;28;20040;-70
2021/12/23 08:40:16;;;;;;;180.25;69.97;;;;;;;-0.68;100.00;100623.09;5005088;28;20079;-70
2021/12/23 08:42:41;;;;;;;174.20;74.53;;;;;;;-0.70;100.00;100627.72;5006746;28;20392;-69
2021/12/23 08:45:07;;;;;;;212.25;90.03;;;;;;;-0.69;100.00;100610.91;5007488;28;20041;-70
2021/12/23 08:47:34;;;;;;;201.02;74.93;;;;;;;-0.67;100.00;100590.47;5004669;28;20937;-70
2021/12/23 08:50:00;;;;;;;200.23;75.53;;;;;;;-0.66;100.00;100607.91;4990488;28;20065;-71
2021/12/23 08:52:31;;;;;;;179.65;75.80;;;;;;;-0.64;100.00;100576.97;4975115;28;20091;-70
2021/12/23 08:54:57;;;;;;;209.93;87.45;;;;;;;-0.65;100.00;100560.34;4990902;28;20041;-70
2021/12/23 08:57:22;;;;;;;168.90;65.20;;;;;;;-0.60;100.00;100552.69;4990426;28;20588;-69
2021/12/23 08:59:48;;;;;;;147.23;54.35;;;;;;;-0.63;100.00;100589.94;4990658;28;20064;-70
2021/12/23 09:02:14;;;;;;;170.20;72.15;;;;;;;-0.68;100.00;100563.31;4992149;28;20037;-70
2021/12/23 09:04:41;;;;;;;176.35;77.57;;;;;;;-0.62;100.00;100567.06;4995205;28;20139;-70
2021/12/23 09:07:07;;;;;;;186.68;80.18;;;;;;;-0.61;100.00;100555.50;4988270;28;20456;-71
2021/12/23 09:09:34;;;;;;;180.02;73.45;;;;;;;-0.58;100.00;100574.41;4989894;28;20259;-70
2021/12/23 09:12:00;;;;;;;212.88;93.70;;;;;;;-0.53;100.00;100565.16;4990646;28;20201;-70
2021/12/23 09:14:27;;;;;;;210.65;103.13;;;;;;;-0.53;100.00;100558.06;4989491;28;20125;-70
2021/12/23 09:16:52;;;;;;;177.27;83.82;;;;;;;-0.51;100.00;100561.34;4979777;28;20095;-70
2021/12/23 09:19:18;;;;;;;184.23;92.35;;;;;;;-0.48;100.00;100560.19;4995874;28;20307;-69
2021/12/23 09:21:44;;;;;;;194.27;95.35;;;;;;;-0.59;100.00;100540.34;4992505;28;20114;-70
2021/12/23 09:24:10;;;;;;;193.52;93.03;;;;;;;-0.45;100.00;100560.63;4996521;28;20056;-70
2021/12/23 09:26:45;;;;;;;193.15;87.05;;;;;;;-0.40;100.00;100552.19;4998975;28;20425;-70
2021/12/23 09:32:39;;;;;;;183.93;87.07;;;;;;;-0.38;100.00;100535.19;4989721;28;20041;-70
2021/12/23 09:34:41;;;;;;;199.52;95.00;;;;;;;-0.39;100.00;100549.38;4991559;28;20045;-70
2021/12/23 09:37:06;;;;;;;209.77;97.25;;;;;;;-0.35;100.00;100544.53;4991994;28;20033;-70
2021/12/23 09:39:32;;;;;;;187.95;85.90;;;;;;;-0.36;100.00;100535.81;4992299;28;20152;-71
2021/12/23 09:41:57;;;;;;;176.88;78.90;;;;;;;-0.34;100.00;100541.72;4990388;28;20076;-70
2021/12/23 09:44:23;;;;;;;199.45;90.10;;;;;;;-0.31;100.00;100544.00;4991056;28;20040;-70
2021/12/23 09:46:49;;;;;;;251.35;104.63;;;;;;;-0.29;100.00;100542.00;4985056;28;20631;-70
2021/12/23 09:49:29;;;;;;;163.95;67.90;;;;;;;-0.30;100.00;100537.72;4989266;28;20034;-70
2021/12/23 09:51:55;;;;;;;175.93;68.10;;;;;;;-0.32;100.00;100533.66;4990665;28;20025;-70
2021/12/23 09:54:28;;;;;;;187.88;68.70;;;;;;;-0.31;100.00;100543.19;4992304;28;20049;-70
2021/12/23 09:56:56;;;;;;;198.55;83.53;;;;;;;-0.33;100.00;100560.97;5006323;28;20041;-70
2021/12/23 09:59:27;;;;;;;174.27;73.15;;;;;;;-0.32;100.00;100552.91;4992286;28;20037;-71
2021/12/23 10:01:53;;;;;;;183.05;72.95;;;;;;;-0.29;100.00;100565.72;4991407;28;20456;-70
2021/12/23 10:04:21;;;;;;;157.48;59.17;;;;;;;-0.28;100.00;100580.53;5006622;28;20041;-70
2021/12/23 10:06:48;;;;;;;137.82;53.85;;;;;;;-0.28;100.00;100556.81;4996053;28;20037;-70
2021/12/23 10:09:22;;;;;;;139.57;52.75;;;;;;;-0.31;100.00;100546.66;4997155;28;20120;-69
2021/12/23 10:31:54;;;;;;;189.55;78.82;;;;;;;-0.15;100.00;100513.19;4989680;28;20048;-71
2021/12/23 10:39:38;;;;;;;188.60;69.53;;;;;;;-0.07;100.00;100510.47;4987675;28;20274;-71
2021/12/23 10:42:11;;;;;;;172.05;61.10;;;;;;;-0.08;100.00;100500.91;4987653;28;20637;-70
2021/12/23 10:44:38;;;;;;;172.82;63.58;;;;;;;-0.03;100.00;100515.16;4988074;28;20069;-71
2021/12/23 10:47:03;;;;;;;174.85;60.70;;;;;;;0.04;100.00;100506.53;4991362;28;20029;-70
2021/12/23 10:49:33;;;;;;;145.77;57.80;;;;;;;0.10;100.00;100509.25;4990729;28;20060;-71
2021/12/23 10:52:05;;;;;;;;;;;;;;;0.20;100.00;100506.31;4989821;28;20048;-70
2021/12/23 11:00:18;;;;;;;140.02;56.72;;;;;;;0.46;100.00;100489.94;4987507;28;20033;-70
2021/12/23 11:03:33;;;;;;;161.30;57.97;;;;;;;0.30;100.00;100458.50;4987633;28;20034;-71
2021/12/23 11:06:26;;;;;;;118.18;45.97;;;;;;;0.56;100.00;100490.44;4983594;28;20159;-70
2021/12/23 11:09:13;;;;;;;123.65;47.10;;;;;;;0.59;100.00;100484.81;4985262;28;20037;-70
2021/12/23 11:37:00;;;;;;;107.78;46.58;;;;;;;1.68;100.00;100427.03;4991752;28;20033;-70
2021/12/23 11:44:38;;;;;;;105.88;45.85;;;;;;;2.14;100.00;100389.31;4987870;28;20107;-72
2021/12/23 11:47:13;;;;;;;98.93;45.63;;;;;;;2.24;100.00;100379.97;4991193;28;20034;-72
2021/12/23 11:49:40;;;;;;;105.72;45.30;;;;;;;2.37;100.00;100368.59;4990578;28;20099;-71
2021/12/23 11:52:06;;;;;;;93.05;44.58;;;;;;;2.42;100.00;100352.91;4999068;28;20524;-70
2021/12/23 11:54:41;;;;;;;99.80;42.75;;;;;;;2.45;100.00;100349.03;4991578;28;20041;-70
2021/12/23 11:57:28;;;;;;;88.03;43.20;;;;;;;2.56;100.00;100351.06;5006615;28;20125;-69
2021/12/23 12:00:10;;;;;;;92.50;42.03;;;;;;;2.64;100.00;100339.47;4996788;28;20458;-72
2021/12/23 12:02:35;;;;;;;98.03;44.15;;;;;;;2.63;100.00;100346.59;4994961;28;20034;-70
2021/12/23 12:05:05;;;;;;;90.43;42.25;;;;;;;2.73;100.00;100335.56;4993940;28;20065;-69
2021/12/23 12:07:31;;;;;;;90.18;42.90;;;;;;;2.74;100.00;100329.25;4994045;28;20041;-69
2021/12/23 12:10:12;;;;;;;88.03;42.78;;;;;;;2.78;100.00;100319.88;4996522;28;20701;-72
2021/12/23 12:12:58;;;;;;;83.82;41.15;;;;;;;2.77;100.00;100321.72;4996040;28;20311;-70
2021/12/23 12:15:39;;;;;;;85.85;41.83;;;;;;;2.86;100.00;100317.00;4993592;28;20373;-70